sensor_id;sensor_type;location;lat;lon;timestamp;P1;durP1;ratioP1;P2;durP2;ratioP2
5022;SDS011;2530;47.990;7.866;2023-07-24T00:01:21;9.80;;;7.30;;
5022;SDS011;2530;47.990;7.866;2023-07-24T00:03:47;8.40;;;6.50;;
5022;SDS011;2530;47.990;7.866;2023-07-24T00:06:12;8.48;;;7.50;;
5022;SDS011;2530;47.990;7.866;2023-07-24T00:08:38;8.10;;;6.60;;
5022;SDS011;2530;47.990;7.866;2023-07-24T00:11:06;7.95;;;6.85;;
5022;SDS011;2530;47.990;7.866;2023-07-24T00:13:35;8.85;;;6.80;;
5022;SDS011;2530;47.990;7.866;2023-07-24T00:16:00;9.55;;;7.50;;
5022;SDS011;2530;47.990;7.866;2023-07-24T00:18:30;8.25;;;6.50;;
5022;SDS011;2530;47.990;7.866;2023-07-24T00:20:56;9.33;;;7.50;;
5022;SDS011;2530;47.990;7.866;2023-07-24T00:23:21;9.88;;;7.63;;
5022;SDS011;2530;47.990;7.866;2023-07-24T00:25:47;8.60;;;7.70;;
5022;SDS011;2530;47.990;7.866;2023-07-24T00:28:12;9.00;;;7.88;;
5022;SDS011;2530;47.990;7.866;2023-07-24T00:30:38;8.30;;;6.80;;
5022;SDS011;2530;47.990;7.866;2023-07-24T00:33:03;9.10;;;7.50;;
5022;SDS011;2530;47.990;7.866;2023-07-24T00:35:29;8.97;;;6.90;;
5022;SDS011;2530;47.990;7.866;2023-07-24T00:37:54;9.63;;;7.50;;
5022;SDS011;2530;47.990;7.866;2023-07-24T00:40:20;9.50;;;6.90;;
5022;SDS011;2530;47.990;7.866;2023-07-24T00:42:46;7.80;;;7.00;;
5022;SDS011;2530;47.990;7.866;2023-07-24T00:45:12;7.90;;;6.70;;
5022;SDS011;2530;47.990;7.866;2023-07-24T00:47:38;8.98;;;7.38;;
5022;SDS011;2530;47.990;7.866;2023-07-24T00:50:04;9.30;;;7.13;;
5022;SDS011;2530;47.990;7.866;2023-07-24T00:52:30;8.50;;;7.25;;
5022;SDS011;2530;47.990;7.866;2023-07-24T00:54:55;9.47;;;7.57;;
5022;SDS011;2530;47.990;7.866;2023-07-24T00:57:21;10.05;;;7.78;;
5022;SDS011;2530;47.990;7.866;2023-07-24T00:59:48;9.63;;;7.50;;
5022;SDS011;2530;47.990;7.866;2023-07-24T01:02:13;7.67;;;6.60;;
5022;SDS011;2530;47.990;7.866;2023-07-24T01:04:39;10.20;;;7.75;;
5022;SDS011;2530;47.990;7.866;2023-07-24T01:07:05;8.10;;;7.22;;
5022;SDS011;2530;47.990;7.866;2023-07-24T01:09:30;9.50;;;7.07;;
5022;SDS011;2530;47.990;7.866;2023-07-24T01:11:56;7.57;;;6.63;;
5022;SDS011;2530;47.990;7.866;2023-07-24T01:14:50;7.77;;;6.60;;
5022;SDS011;2530;47.990;7.866;2023-07-24T01:17:24;8.68;;;7.30;;
5022;SDS011;2530;47.990;7.866;2023-07-24T01:19:55;8.20;;;6.90;;
5022;SDS011;2530;47.990;7.866;2023-07-24T01:27:25;7.93;;;7.03;;
5022;SDS011;2530;47.990;7.866;2023-07-24T01:29:51;9.60;;;7.00;;
5022;SDS011;2530;47.990;7.866;2023-07-24T01:32:17;7.70;;;6.90;;
5022;SDS011;2530;47.990;7.866;2023-07-24T01:34:44;8.77;;;7.07;;
5022;SDS011;2530;47.990;7.866;2023-07-24T01:37:10;8.35;;;7.40;;
5022;SDS011;2530;47.990;7.866;2023-07-24T01:39:38;8.68;;;7.20;;
5022;SDS011;2530;47.990;7.866;2023-07-24T01:42:06;10.80;;;7.22;;
5022;SDS011;2530;47.990;7.866;2023-07-24T01:44:32;9.80;;;7.75;;
5022;SDS011;2530;47.990;7.866;2023-07-24T01:46:57;8.60;;;7.03;;
5022;SDS011;2530;47.990;7.866;2023-07-24T01:49:23;9.17;;;7.20;;
5022;SDS011;2530;47.990;7.866;2023-07-24T01:51:48;8.95;;;7.22;;
5022;SDS011;2530;47.990;7.866;2023-07-24T01:54:14;9.60;;;7.60;;
5022;SDS011;2530;47.990;7.866;2023-07-24T01:56:39;9.20;;;7.00;;
5022;SDS011;2530;47.990;7.866;2023-07-24T01:59:05;8.50;;;7.57;;
5022;SDS011;2530;47.990;7.866;2023-07-24T02:01:31;9.80;;;7.73;;
5022;SDS011;2530;47.990;7.866;2023-07-24T02:03:56;11.27;;;7.63;;
5022;SDS011;2530;47.990;7.866;2023-07-24T02:06:22;8.77;;;7.33;;
5022;SDS011;2530;47.990;7.866;2023-07-24T02:08:47;8.33;;;6.60;;
5022;SDS011;2530;47.990;7.866;2023-07-24T02:11:17;7.80;;;7.00;;
5022;SDS011;2530;47.990;7.866;2023-07-24T02:13:44;8.97;;;6.93;;
5022;SDS011;2530;47.990;7.866;2023-07-24T02:16:10;8.63;;;7.10;;
5022;SDS011;2530;47.990;7.866;2023-07-24T02:18:40;9.45;;;7.25;;
5022;SDS011;2530;47.990;7.866;2023-07-24T02:21:06;9.13;;;7.10;;
5022;SDS011;2530;47.990;7.866;2023-07-24T02:23:32;10.35;;;7.13;;
5022;SDS011;2530;47.990;7.866;2023-07-24T02:25:57;7.77;;;6.73;;
5022;SDS011;2530;47.990;7.866;2023-07-24T02:28:23;8.55;;;7.60;;
5022;SDS011;2530;47.990;7.866;2023-07-24T02:30:48;8.87;;;7.47;;
5022;SDS011;2530;47.990;7.866;2023-07-24T02:33:16;9.32;;;7.45;;
5022;SDS011;2530;47.990;7.866;2023-07-24T02:35:41;8.43;;;6.70;;
5022;SDS011;2530;47.990;7.866;2023-07-24T02:38:07;8.23;;;7.32;;
5022;SDS011;2530;47.990;7.866;2023-07-24T02:40:33;9.70;;;6.72;;
5022;SDS011;2530;47.990;7.866;2023-07-24T02:43:00;8.82;;;6.82;;
5022;SDS011;2530;47.990;7.866;2023-07-24T02:45:25;8.77;;;7.47;;
5022;SDS011;2530;47.990;7.866;2023-07-24T02:47:51;8.55;;;7.20;;
5022;SDS011;2530;47.990;7.866;2023-07-24T02:50:16;7.57;;;6.77;;
5022;SDS011;2530;47.990;7.866;2023-07-24T02:52:42;8.50;;;7.30;;
5022;SDS011;2530;47.990;7.866;2023-07-24T02:55:07;7.23;;;6.53;;
5022;SDS011;2530;47.990;7.866;2023-07-24T02:57:33;8.97;;;7.07;;
5022;SDS011;2530;47.990;7.866;2023-07-24T02:59:59;8.75;;;7.40;;
5022;SDS011;2530;47.990;7.866;2023-07-24T03:02:24;10.03;;;7.43;;
5022;SDS011;2530;47.990;7.866;2023-07-24T03:04:50;9.35;;;7.22;;
5022;SDS011;2530;47.990;7.866;2023-07-24T03:07:16;10.02;;;7.53;;
5022;SDS011;2530;47.990;7.866;2023-07-24T03:09:42;10.23;;;7.57;;
5022;SDS011;2530;47.990;7.866;2023-07-24T03:12:07;7.75;;;6.95;;
5022;SDS011;2530;47.990;7.866;2023-07-24T03:14:33;7.82;;;6.75;;
5022;SDS011;2530;47.990;7.866;2023-07-24T03:16:59;10.83;;;7.30;;
5022;SDS011;2530;47.990;7.866;2023-07-24T03:19:24;7.95;;;6.90;;
5022;SDS011;2530;47.990;7.866;2023-07-24T03:21:50;7.77;;;6.97;;
5022;SDS011;2530;47.990;7.866;2023-07-24T03:24:16;9.38;;;7.30;;
5022;SDS011;2530;47.990;7.866;2023-07-24T03:26:42;8.70;;;6.55;;
5022;SDS011;2530;47.990;7.866;2023-07-24T03:29:07;8.52;;;7.20;;
5022;SDS011;2530;47.990;7.866;2023-07-24T03:31:33;9.03;;;7.40;;
5022;SDS011;2530;47.990;7.866;2023-07-24T03:33:58;11.03;;;7.90;;
5022;SDS011;2530;47.990;7.866;2023-07-24T03:36:24;7.68;;;6.60;;
5022;SDS011;2530;47.990;7.866;2023-07-24T03:38:49;8.20;;;7.30;;
5022;SDS011;2530;47.990;7.866;2023-07-24T03:41:15;10.02;;;7.57;;
5022;SDS011;2530;47.990;7.866;2023-07-24T03:43:40;9.10;;;6.90;;
5022;SDS011;2530;47.990;7.866;2023-07-24T03:46:08;9.13;;;7.43;;
5022;SDS011;2530;47.990;7.866;2023-07-24T03:48:33;8.00;;;7.07;;
5022;SDS011;2530;47.990;7.866;2023-07-24T03:51:02;8.68;;;7.40;;
5022;SDS011;2530;47.990;7.866;2023-07-24T03:53:27;8.90;;;7.18;;
5022;SDS011;2530;47.990;7.866;2023-07-24T03:55:53;8.30;;;6.93;;
5022;SDS011;2530;47.990;7.866;2023-07-24T03:58:19;8.25;;;6.78;;
5022;SDS011;2530;47.990;7.866;2023-07-24T04:00:45;9.33;;;7.13;;
5022;SDS011;2530;47.990;7.866;2023-07-24T04:03:10;9.67;;;7.23;;
5022;SDS011;2530;47.990;7.866;2023-07-24T04:05:36;10.00;;;7.35;;
5022;SDS011;2530;47.990;7.866;2023-07-24T04:08:02;8.43;;;7.47;;
5022;SDS011;2530;47.990;7.866;2023-07-24T04:10:28;9.60;;;7.63;;
5022;SDS011;2530;47.990;7.866;2023-07-24T04:12:55;8.73;;;7.70;;
5022;SDS011;2530;47.990;7.866;2023-07-24T04:15:21;9.55;;;7.32;;
5022;SDS011;2530;47.990;7.866;2023-07-24T04:17:47;7.50;;;6.60;;
5022;SDS011;2530;47.990;7.866;2023-07-24T04:20:13;8.35;;;7.25;;
5022;SDS011;2530;47.990;7.866;2023-07-24T04:22:38;7.77;;;6.97;;
5022;SDS011;2530;47.990;7.866;2023-07-24T04:25:04;8.67;;;6.83;;
5022;SDS011;2530;47.990;7.866;2023-07-24T04:27:30;8.00;;;7.20;;
5022;SDS011;2530;47.990;7.866;2023-07-24T04:29:56;8.45;;;7.28;;
5022;SDS011;2530;47.990;7.866;2023-07-24T04:32:21;8.33;;;6.40;;
5022;SDS011;2530;47.990;7.866;2023-07-24T04:34:47;11.87;;;7.17;;
5022;SDS011;2530;47.990;7.866;2023-07-24T04:37:12;9.73;;;7.40;;
5022;SDS011;2530;47.990;7.866;2023-07-24T04:39:38;11.83;;;7.60;;
5022;SDS011;2530;47.990;7.866;2023-07-24T04:42:04;8.70;;;6.90;;
5022;SDS011;2530;47.990;7.866;2023-07-24T04:44:30;7.93;;;7.13;;
5022;SDS011;2530;47.990;7.866;2023-07-24T04:46:57;8.50;;;6.97;;
5022;SDS011;2530;47.990;7.866;2023-07-24T04:49:23;9.30;;;7.20;;
5022;SDS011;2530;47.990;7.866;2023-07-24T04:51:49;8.55;;;7.32;;
5022;SDS011;2530;47.990;7.866;2023-07-24T04:56:57;9.30;;;7.10;;
5022;SDS011;2530;47.990;7.866;2023-07-24T04:59:22;8.33;;;7.03;;
5022;SDS011;2530;47.990;7.866;2023-07-24T05:01:48;8.88;;;6.60;;
5022;SDS011;2530;47.990;7.866;2023-07-24T05:04:15;8.18;;;6.70;;
5022;SDS011;2530;47.990;7.866;2023-07-24T05:06:41;11.43;;;6.73;;
5022;SDS011;2530;47.990;7.866;2023-07-24T05:09:07;7.73;;;6.00;;
5022;SDS011;2530;47.990;7.866;2023-07-24T05:11:32;8.77;;;6.00;;
5022;SDS011;2530;47.990;7.866;2023-07-24T05:13:58;7.10;;;6.23;;
5022;SDS011;2530;47.990;7.866;2023-07-24T05:16:23;8.32;;;6.18;;
5022;SDS011;2530;47.990;7.866;2023-07-24T05:18:49;7.90;;;5.10;;
5022;SDS011;2530;47.990;7.866;2023-07-24T05:21:14;7.70;;;4.80;;
5022;SDS011;2530;47.990;7.866;2023-07-24T05:23:40;7.57;;;5.00;;
5022;SDS011;2530;47.990;7.866;2023-07-24T05:26:06;5.60;;;4.67;;
5022;SDS011;2530;47.990;7.866;2023-07-24T05:28:31;6.18;;;4.88;;
5022;SDS011;2530;47.990;7.866;2023-07-24T05:31:01;7.35;;;5.38;;
5022;SDS011;2530;47.990;7.866;2023-07-24T05:33:27;5.75;;;5.10;;
5022;SDS011;2530;47.990;7.866;2023-07-24T05:36:00;7.00;;;5.30;;
5022;SDS011;2530;47.990;7.866;2023-07-24T05:38:28;8.65;;;6.00;;
5022;SDS011;2530;47.990;7.866;2023-07-24T05:40:55;5.90;;;5.20;;
5022;SDS011;2530;47.990;7.866;2023-07-24T05:43:24;6.93;;;5.13;;
5022;SDS011;2530;47.990;7.866;2023-07-24T05:45:50;7.10;;;5.80;;
5022;SDS011;2530;47.990;7.866;2023-07-24T05:48:16;6.13;;;5.30;;
5022;SDS011;2530;47.990;7.866;2023-07-24T05:50:42;8.98;;;5.80;;
5022;SDS011;2530;47.990;7.866;2023-07-24T05:53:08;6.70;;;5.60;;
5022;SDS011;2530;47.990;7.866;2023-07-24T05:55:33;7.20;;;5.28;;
5022;SDS011;2530;47.990;7.866;2023-07-24T05:57:59;7.67;;;4.70;;
5022;SDS011;2530;47.990;7.866;2023-07-24T06:00:24;6.72;;;5.10;;
5022;SDS011;2530;47.990;7.866;2023-07-24T06:02:50;6.90;;;5.33;;
5022;SDS011;2530;47.990;7.866;2023-07-24T06:05:15;6.30;;;4.85;;
5022;SDS011;2530;47.990;7.866;2023-07-24T06:07:41;4.97;;;4.47;;
5022;SDS011;2530;47.990;7.866;2023-07-24T06:10:07;6.17;;;4.90;;
5022;SDS011;2530;47.990;7.866;2023-07-24T06:12:32;5.30;;;4.40;;
5022;SDS011;2530;47.990;7.866;2023-07-24T06:14:58;5.00;;;4.50;;
5022;SDS011;2530;47.990;7.866;2023-07-24T06:17:23;5.70;;;4.20;;
5022;SDS011;2530;47.990;7.866;2023-07-24T06:19:49;4.50;;;4.03;;
5022;SDS011;2530;47.990;7.866;2023-07-24T06:22:15;7.28;;;4.78;;
5022;SDS011;2530;47.990;7.866;2023-07-24T06:24:40;4.27;;;3.87;;
5022;SDS011;2530;47.990;7.866;2023-07-24T06:27:06;6.15;;;4.40;;
5022;SDS011;2530;47.990;7.866;2023-07-24T06:29:32;4.78;;;3.60;;
5022;SDS011;2530;47.990;7.866;2023-07-24T06:31:57;4.93;;;3.78;;
5022;SDS011;2530;47.990;7.866;2023-07-24T06:34:23;4.30;;;3.80;;
5022;SDS011;2530;47.990;7.866;2023-07-24T06:36:49;5.13;;;4.03;;
5022;SDS011;2530;47.990;7.866;2023-07-24T06:39:15;4.57;;;3.83;;
5022;SDS011;2530;47.990;7.866;2023-07-24T06:41:43;4.25;;;3.85;;
5022;SDS011;2530;47.990;7.866;2023-07-24T06:44:09;4.82;;;3.70;;
5022;SDS011;2530;47.990;7.866;2023-07-24T06:46:34;3.90;;;3.30;;
5022;SDS011;2530;47.990;7.866;2023-07-24T06:49:00;4.22;;;3.60;;
5022;SDS011;2530;47.990;7.866;2023-07-24T06:51:25;5.90;;;3.70;;
5022;SDS011;2530;47.990;7.866;2023-07-24T06:53:51;5.90;;;3.00;;
5022;SDS011;2530;47.990;7.866;2023-07-24T06:56:16;3.80;;;3.20;;
5022;SDS011;2530;47.990;7.866;2023-07-24T06:58:42;3.50;;;2.90;;
5022;SDS011;2530;47.990;7.866;2023-07-24T07:01:07;4.30;;;3.37;;
5022;SDS011;2530;47.990;7.866;2023-07-24T07:03:33;4.22;;;3.25;;
5022;SDS011;2530;47.990;7.866;2023-07-24T07:06:02;8.35;;;4.05;;
5022;SDS011;2530;47.990;7.866;2023-07-24T07:08:31;4.80;;;3.70;;
5022;SDS011;2530;47.990;7.866;2023-07-24T07:10:57;7.30;;;4.00;;
5022;SDS011;2530;47.990;7.866;2023-07-24T07:13:26;6.30;;;3.65;;
5022;SDS011;2530;47.990;7.866;2023-07-24T07:15:52;4.65;;;3.85;;
5022;SDS011;2530;47.990;7.866;2023-07-24T07:18:17;5.72;;;4.30;;
5022;SDS011;2530;47.990;7.866;2023-07-24T07:20:46;5.33;;;3.60;;
5022;SDS011;2530;47.990;7.866;2023-07-24T07:23:12;4.75;;;4.10;;
5022;SDS011;2530;47.990;7.866;2023-07-24T07:25:38;5.40;;;4.20;;
5022;SDS011;2530;47.990;7.866;2023-07-24T07:28:04;6.07;;;4.10;;
5022;SDS011;2530;47.990;7.866;2023-07-24T07:30:29;4.50;;;4.10;;
5022;SDS011;2530;47.990;7.866;2023-07-24T07:32:55;4.10;;;3.70;;
5022;SDS011;2530;47.990;7.866;2023-07-24T07:35:20;3.97;;;3.57;;
5022;SDS011;2530;47.990;7.866;2023-07-24T07:37:46;5.72;;;4.25;;
5022;SDS011;2530;47.990;7.866;2023-07-24T07:40:11;6.73;;;4.50;;
5022;SDS011;2530;47.990;7.866;2023-07-24T07:42:37;4.90;;;4.40;;
5022;SDS011;2530;47.990;7.866;2023-07-24T07:45:03;4.57;;;3.90;;
5022;SDS011;2530;47.990;7.866;2023-07-24T07:47:29;7.20;;;4.30;;
5022;SDS011;2530;47.990;7.866;2023-07-24T07:49:54;6.13;;;4.80;;
5022;SDS011;2530;47.990;7.866;2023-07-24T07:52:20;5.20;;;4.30;;
5022;SDS011;2530;47.990;7.866;2023-07-24T07:54:49;7.82;;;4.75;;
5022;SDS011;2530;47.990;7.866;2023-07-24T07:57:15;5.70;;;4.50;;
5022;SDS011;2530;47.990;7.866;2023-07-24T07:59:41;6.70;;;5.20;;
5022;SDS011;2530;47.990;7.866;2023-07-24T08:02:06;6.20;;;5.30;;
5022;SDS011;2530;47.990;7.866;2023-07-24T08:04:32;7.88;;;5.78;;
5022;SDS011;2530;47.990;7.866;2023-07-24T08:06:58;6.65;;;5.53;;
5022;SDS011;2530;47.990;7.866;2023-07-24T08:09:23;8.90;;;6.97;;
5022;SDS011;2530;47.990;7.866;2023-07-24T08:11:49;7.10;;;6.13;;
5022;SDS011;2530;47.990;7.866;2023-07-24T08:14:16;9.10;;;5.47;;
5022;SDS011;2530;47.990;7.866;2023-07-24T08:16:42;6.10;;;5.50;;
5022;SDS011;2530;47.990;7.866;2023-07-24T08:19:08;6.70;;;6.00;;
5022;SDS011;2530;47.990;7.866;2023-07-24T08:21:33;6.47;;;5.60;;
5022;SDS011;2530;47.990;7.866;2023-07-24T08:23:59;6.10;;;5.50;;
5022;SDS011;2530;47.990;7.866;2023-07-24T08:26:26;6.35;;;5.75;;
5022;SDS011;2530;47.990;7.866;2023-07-24T08:28:52;6.47;;;5.13;;
5022;SDS011;2530;47.990;7.866;2023-07-24T08:31:18;7.18;;;5.10;;
5022;SDS011;2530;47.990;7.866;2023-07-24T08:33:44;6.15;;;5.03;;
5022;SDS011;2530;47.990;7.866;2023-07-24T08:36:10;6.38;;;5.40;;
5022;SDS011;2530;47.990;7.866;2023-07-24T08:38:37;7.05;;;5.40;;
5022;SDS011;2530;47.990;7.866;2023-07-24T08:41:10;7.47;;;5.80;;
5022;SDS011;2530;47.990;7.866;2023-07-24T08:43:37;7.88;;;5.60;;
5022;SDS011;2530;47.990;7.866;2023-07-24T08:46:04;5.90;;;5.00;;
5022;SDS011;2530;47.990;7.866;2023-07-24T08:48:31;6.70;;;5.40;;
5022;SDS011;2530;47.990;7.866;2023-07-24T08:51:00;7.68;;;5.70;;
5022;SDS011;2530;47.990;7.866;2023-07-24T08:53:28;5.72;;;5.20;;
5022;SDS011;2530;47.990;7.866;2023-07-24T08:55:55;9.18;;;6.10;;
5022;SDS011;2530;47.990;7.866;2023-07-24T08:58:21;9.68;;;6.63;;
5022;SDS011;2530;47.990;7.866;2023-07-24T09:00:47;11.27;;;6.63;;
5022;SDS011;2530;47.990;7.866;2023-07-24T09:03:13;7.15;;;5.75;;
5022;SDS011;2530;47.990;7.866;2023-07-24T09:05:38;6.90;;;5.67;;
5022;SDS011;2530;47.990;7.866;2023-07-24T09:08:04;6.68;;;5.82;;
5022;SDS011;2530;47.990;7.866;2023-07-24T09:10:29;8.30;;;6.40;;
5022;SDS011;2530;47.990;7.866;2023-07-24T09:12:55;7.97;;;5.80;;
5022;SDS011;2530;47.990;7.866;2023-07-24T09:15:21;6.70;;;6.00;;
5022;SDS011;2530;47.990;7.866;2023-07-24T09:17:50;7.60;;;6.10;;
5022;SDS011;2530;47.990;7.866;2023-07-24T09:20:17;8.05;;;6.70;;
5022;SDS011;2530;47.990;7.866;2023-07-24T09:22:49;11.32;;;7.05;;
5022;SDS011;2530;47.990;7.866;2023-07-24T09:25:16;11.02;;;7.70;;
5022;SDS011;2530;47.990;7.866;2023-07-24T09:27:41;12.10;;;6.30;;
5022;SDS011;2530;47.990;7.866;2023-07-24T09:30:13;10.27;;;5.47;;
5022;SDS011;2530;47.990;7.866;2023-07-24T09:32:40;6.07;;;4.97;;
5022;SDS011;2530;47.990;7.866;2023-07-24T09:35:26;7.15;;;4.88;;
5022;SDS011;2530;47.990;7.866;2023-07-24T09:38:06;6.13;;;4.20;;
5022;SDS011;2530;47.990;7.866;2023-07-24T09:40:39;5.93;;;4.85;;
5022;SDS011;2530;47.990;7.866;2023-07-24T09:43:22;7.43;;;5.10;;
5022;SDS011;2530;47.990;7.866;2023-07-24T09:45:49;6.18;;;4.20;;
5022;SDS011;2530;47.990;7.866;2023-07-24T09:48:16;4.57;;;3.83;;
5022;SDS011;2530;47.990;7.866;2023-07-24T09:50:44;5.80;;;3.90;;
5022;SDS011;2530;47.990;7.866;2023-07-24T09:55:45;7.20;;;4.82;;
5022;SDS011;2530;47.990;7.866;2023-07-24T09:58:33;4.45;;;4.05;;
5022;SDS011;2530;47.990;7.866;2023-07-24T10:01:04;5.20;;;4.05;;
5022;SDS011;2530;47.990;7.866;2023-07-24T10:03:35;5.63;;;3.70;;
5022;SDS011;2530;47.990;7.866;2023-07-24T10:06:03;4.70;;;3.78;;
5022;SDS011;2530;47.990;7.866;2023-07-24T10:08:29;8.13;;;4.93;;
5022;SDS011;2530;47.990;7.866;2023-07-24T10:10:56;6.90;;;4.40;;
5022;SDS011;2530;47.990;7.866;2023-07-24T10:13:26;6.50;;;4.23;;
5022;SDS011;2530;47.990;7.866;2023-07-24T10:15:52;5.93;;;4.50;;
5022;SDS011;2530;47.990;7.866;2023-07-24T10:18:25;4.90;;;3.87;;
5022;SDS011;2530;47.990;7.866;2023-07-24T10:23:29;4.70;;;3.30;;
5022;SDS011;2530;47.990;7.866;2023-07-24T10:25:55;4.93;;;3.23;;
5022;SDS011;2530;47.990;7.866;2023-07-24T10:28:34;4.53;;;3.40;;
5022;SDS011;2530;47.990;7.866;2023-07-24T10:31:04;4.30;;;3.28;;
5022;SDS011;2530;47.990;7.866;2023-07-24T10:33:50;4.37;;;3.77;;
5022;SDS011;2530;47.990;7.866;2023-07-24T10:36:17;5.40;;;4.40;;
5022;SDS011;2530;47.990;7.866;2023-07-24T10:38:44;5.60;;;4.03;;
5022;SDS011;2530;47.990;7.866;2023-07-24T10:41:11;4.57;;;3.80;;
5022;SDS011;2530;47.990;7.866;2023-07-24T10:43:40;4.90;;;4.00;;
5022;SDS011;2530;47.990;7.866;2023-07-24T10:46:13;4.72;;;4.30;;
5022;SDS011;2530;47.990;7.866;2023-07-24T10:48:44;4.70;;;3.87;;
5022;SDS011;2530;47.990;7.866;2023-07-24T10:51:11;5.05;;;3.50;;
5022;SDS011;2530;47.990;7.866;2023-07-24T10:53:40;3.97;;;3.30;;
5022;SDS011;2530;47.990;7.866;2023-07-24T10:56:10;3.60;;;3.23;;
5022;SDS011;2530;47.990;7.866;2023-07-24T10:58:35;3.67;;;3.13;;
5022;SDS011;2530;47.990;7.866;2023-07-24T11:01:03;3.80;;;3.40;;
5022;SDS011;2530;47.990;7.866;2023-07-24T11:03:30;4.00;;;3.08;;
5022;SDS011;2530;47.990;7.866;2023-07-24T11:05:57;3.03;;;2.67;;
5022;SDS011;2530;47.990;7.866;2023-07-24T11:08:23;3.88;;;2.72;;
5022;SDS011;2530;47.990;7.866;2023-07-24T11:13:16;2.83;;;2.50;;
5022;SDS011;2530;47.990;7.866;2023-07-24T11:15:42;4.00;;;2.58;;
5022;SDS011;2530;47.990;7.866;2023-07-24T11:18:08;2.92;;;2.47;;
5022;SDS011;2530;47.990;7.866;2023-07-24T11:20:45;2.20;;;2.00;;
5022;SDS011;2530;47.990;7.866;2023-07-24T11:23:13;1.98;;;1.77;;
5022;SDS011;2530;47.990;7.866;2023-07-24T11:25:39;2.70;;;2.28;;
5022;SDS011;2530;47.990;7.866;2023-07-24T11:28:06;3.10;;;2.20;;
5022;SDS011;2530;47.990;7.866;2023-07-24T11:30:32;2.10;;;1.90;;
5022;SDS011;2530;47.990;7.866;2023-07-24T11:32:59;2.90;;;2.40;;
5022;SDS011;2530;47.990;7.866;2023-07-24T11:35:26;2.90;;;1.75;;
5022;SDS011;2530;47.990;7.866;2023-07-24T11:37:52;3.58;;;2.70;;
5022;SDS011;2530;47.990;7.866;2023-07-24T11:40:18;2.90;;;2.08;;
5022;SDS011;2530;47.990;7.866;2023-07-24T11:42:45;2.97;;;2.20;;
5022;SDS011;2530;47.990;7.866;2023-07-24T11:45:12;2.55;;;2.10;;
5022;SDS011;2530;47.990;7.866;2023-07-24T11:47:44;2.60;;;2.40;;
5022;SDS011;2530;47.990;7.866;2023-07-24T11:50:11;2.42;;;1.90;;
5022;SDS011;2530;47.990;7.866;2023-07-24T11:52:41;2.30;;;2.10;;
5022;SDS011;2530;47.990;7.866;2023-07-24T11:55:19;2.20;;;2.00;;
5022;SDS011;2530;47.990;7.866;2023-07-24T11:57:56;2.30;;;2.10;;
5022;SDS011;2530;47.990;7.866;2023-07-24T12:00:23;2.75;;;2.50;;
5022;SDS011;2530;47.990;7.866;2023-07-24T12:02:49;2.72;;;2.00;;
5022;SDS011;2530;47.990;7.866;2023-07-24T12:05:15;3.00;;;2.50;;
5022;SDS011;2530;47.990;7.866;2023-07-24T12:07:42;2.78;;;2.50;;
5022;SDS011;2530;47.990;7.866;2023-07-24T12:10:11;3.00;;;2.67;;
5022;SDS011;2530;47.990;7.866;2023-07-24T12:12:39;2.90;;;2.60;;
5022;SDS011;2530;47.990;7.866;2023-07-24T12:15:05;2.55;;;2.35;;
5022;SDS011;2530;47.990;7.866;2023-07-24T12:17:35;3.53;;;2.70;;
5022;SDS011;2530;47.990;7.866;2023-07-24T12:20:01;3.40;;;2.80;;
5022;SDS011;2530;47.990;7.866;2023-07-24T12:22:27;2.80;;;2.20;;
5022;SDS011;2530;47.990;7.866;2023-07-24T12:24:53;2.60;;;2.40;;
5022;SDS011;2530;47.990;7.866;2023-07-24T12:27:18;3.80;;;2.87;;
5022;SDS011;2530;47.990;7.866;2023-07-24T12:29:44;2.75;;;2.50;;
5022;SDS011;2530;47.990;7.866;2023-07-24T12:32:09;4.97;;;2.53;;
5022;SDS011;2530;47.990;7.866;2023-07-24T12:34:35;2.40;;;2.00;;
5022;SDS011;2530;47.990;7.866;2023-07-24T12:37:03;3.10;;;2.80;;
5022;SDS011;2530;47.990;7.866;2023-07-24T12:39:28;3.20;;;2.37;;
5022;SDS011;2530;47.990;7.866;2023-07-24T12:41:57;3.00;;;2.70;;
5022;SDS011;2530;47.990;7.866;2023-07-24T12:44:22;4.60;;;2.40;;
5022;SDS011;2530;47.990;7.866;2023-07-24T12:46:48;2.63;;;2.10;;
5022;SDS011;2530;47.990;7.866;2023-07-24T12:49:13;3.00;;;2.45;;
5022;SDS011;2530;47.990;7.866;2023-07-24T12:51:42;2.87;;;2.63;;
5022;SDS011;2530;47.990;7.866;2023-07-24T12:54:07;5.63;;;3.75;;
5022;SDS011;2530;47.990;7.866;2023-07-24T12:56:35;3.50;;;2.53;;
5022;SDS011;2530;47.990;7.866;2023-07-24T12:59:04;2.50;;;2.30;;
5022;SDS011;2530;47.990;7.866;2023-07-24T13:01:36;3.10;;;2.55;;
5022;SDS011;2530;47.990;7.866;2023-07-24T13:04:01;3.35;;;2.50;;
5022;SDS011;2530;47.990;7.866;2023-07-24T13:06:27;2.28;;;2.08;;
5022;SDS011;2530;47.990;7.866;2023-07-24T13:08:55;3.00;;;2.70;;
5022;SDS011;2530;47.990;7.866;2023-07-24T13:11:20;3.60;;;2.70;;
5022;SDS011;2530;47.990;7.866;2023-07-24T13:13:46;3.20;;;2.90;;
5022;SDS011;2530;47.990;7.866;2023-07-24T13:16:15;4.00;;;2.90;;
5022;SDS011;2530;47.990;7.866;2023-07-24T13:18:41;3.40;;;3.10;;
5022;SDS011;2530;47.990;7.866;2023-07-24T13:21:10;3.83;;;3.10;;
5022;SDS011;2530;47.990;7.866;2023-07-24T13:23:36;6.43;;;4.77;;
5022;SDS011;2530;47.990;7.866;2023-07-24T13:26:02;5.55;;;4.70;;
5022;SDS011;2530;47.990;7.866;2023-07-24T13:28:27;6.40;;;4.78;;
5022;SDS011;2530;47.990;7.866;2023-07-24T13:30:53;9.10;;;5.53;;
5022;SDS011;2530;47.990;7.866;2023-07-24T13:33:18;6.85;;;5.40;;
5022;SDS011;2530;47.990;7.866;2023-07-24T13:35:46;6.03;;;4.65;;
5022;SDS011;2530;47.990;7.866;2023-07-24T13:38:12;5.80;;;5.20;;
5022;SDS011;2530;47.990;7.866;2023-07-24T13:40:38;8.00;;;6.30;;
5022;SDS011;2530;47.990;7.866;2023-07-24T13:43:03;7.23;;;6.00;;
5022;SDS011;2530;47.990;7.866;2023-07-24T13:45:30;7.70;;;6.30;;
5022;SDS011;2530;47.990;7.866;2023-07-24T13:47:56;7.30;;;6.10;;
5022;SDS011;2530;47.990;7.866;2023-07-24T13:50:22;6.90;;;6.20;;
5022;SDS011;2530;47.990;7.866;2023-07-24T13:52:48;7.75;;;6.18;;
5022;SDS011;2530;47.990;7.866;2023-07-24T13:55:14;6.83;;;5.60;;
5022;SDS011;2530;47.990;7.866;2023-07-24T13:57:40;8.65;;;5.78;;
5022;SDS011;2530;47.990;7.866;2023-07-24T14:00:06;6.43;;;4.95;;
5022;SDS011;2530;47.990;7.866;2023-07-24T14:02:32;5.28;;;4.80;;
5022;SDS011;2530;47.990;7.866;2023-07-24T14:04:57;7.40;;;5.60;;
5022;SDS011;2530;47.990;7.866;2023-07-24T14:07:23;6.82;;;5.40;;
5022;SDS011;2530;47.990;7.866;2023-07-24T14:09:48;6.57;;;5.23;;
5022;SDS011;2530;47.990;7.866;2023-07-24T14:12:14;6.13;;;4.90;;
5022;SDS011;2530;47.990;7.866;2023-07-24T14:14:39;6.55;;;4.28;;
5022;SDS011;2530;47.990;7.866;2023-07-24T14:17:05;6.00;;;5.40;;
5022;SDS011;2530;47.990;7.866;2023-07-24T14:19:30;4.93;;;4.43;;
5022;SDS011;2530;47.990;7.866;2023-07-24T14:21:56;5.47;;;4.80;;
5022;SDS011;2530;47.990;7.866;2023-07-24T14:24:22;6.13;;;4.47;;
5022;SDS011;2530;47.990;7.866;2023-07-24T14:26:48;5.33;;;4.83;;
5022;SDS011;2530;47.990;7.866;2023-07-24T14:29:13;5.00;;;4.50;;
5022;SDS011;2530;47.990;7.866;2023-07-24T14:31:42;4.80;;;4.30;;
5022;SDS011;2530;47.990;7.866;2023-07-24T14:34:10;4.90;;;4.30;;
5022;SDS011;2530;47.990;7.866;2023-07-24T14:36:37;5.60;;;5.00;;
5022;SDS011;2530;47.990;7.866;2023-07-24T14:39:03;5.10;;;4.50;;
5022;SDS011;2530;47.990;7.866;2023-07-24T14:41:29;6.80;;;5.00;;
5022;SDS011;2530;47.990;7.866;2023-07-24T14:43:55;6.25;;;4.45;;
5022;SDS011;2530;47.990;7.866;2023-07-24T14:46:21;5.83;;;4.70;;
5022;SDS011;2530;47.990;7.866;2023-07-24T14:48:46;5.00;;;4.50;;
5022;SDS011;2530;47.990;7.866;2023-07-24T14:51:12;5.13;;;4.30;;
5022;SDS011;2530;47.990;7.866;2023-07-24T14:53:37;4.13;;;3.73;;
5022;SDS011;2530;47.990;7.866;2023-07-24T14:56:03;4.17;;;3.77;;
5022;SDS011;2530;47.990;7.866;2023-07-24T14:58:29;4.60;;;3.80;;
5022;SDS011;2530;47.990;7.866;2023-07-24T15:00:55;3.90;;;3.23;;
5022;SDS011;2530;47.990;7.866;2023-07-24T15:03:20;4.25;;;3.05;;
5022;SDS011;2530;47.990;7.866;2023-07-24T15:05:46;3.95;;;3.42;;
5022;SDS011;2530;47.990;7.866;2023-07-24T15:08:12;3.80;;;3.27;;
5022;SDS011;2530;47.990;7.866;2023-07-24T15:10:38;3.77;;;2.83;;
5022;SDS011;2530;47.990;7.866;2023-07-24T15:13:03;3.58;;;3.20;;
5022;SDS011;2530;47.990;7.866;2023-07-24T15:15:29;3.87;;;3.10;;
5022;SDS011;2530;47.990;7.866;2023-07-24T15:17:55;3.30;;;3.00;;
5022;SDS011;2530;47.990;7.866;2023-07-24T15:20:21;4.68;;;3.30;;
5022;SDS011;2530;47.990;7.866;2023-07-24T15:22:46;3.13;;;2.80;;
5022;SDS011;2530;47.990;7.866;2023-07-24T15:25:12;3.57;;;3.00;;
5022;SDS011;2530;47.990;7.866;2023-07-24T15:27:37;3.30;;;3.00;;